Time;durP1;ratioP1;P1;durP2;ratioP2;P2;SDS_P1;SDS_P2;PMS_P1;PMS_P2;Temp;Humidity;BMP_temperature;BMP_pressure;BME280_temperature;BME280_humidity;BME280_pressure;Samples;Min_cycle;Max_cycle;Signal;HPM_P1;HPM_P2
2021/10/17 00:00:18;;;;;;;8.95;4.28;;;;;;;12.66;53.15;102014.13;4855717;28;109397;-69
2021/10/17 00:02:46;;;;;;;12.40;4.78;;;;;;;12.69;53.08;102012.28;4854901;29;110177;-69
2021/10/17 00:05:15;;;;;;;10.85;5.05;;;;;;;12.70;53.01;102019.34;4856672;29;124428;-69
2021/10/17 00:07:43;;;;;;;10.02;4.60;;;;;;;12.72;52.95;102017.50;4849425;29;123316;-69
2021/10/17 00:10:14;;;;;;;13.60;5.07;;;;;;;12.71;52.91;102021.06;4857524;29;108566;-69
2021/10/17 00:12:42;;;;;;;10.48;4.57;;;;;;;12.72;53.10;102017.50;4855731;28;109088;-69
2021/10/17 00:15:13;;;;;;;9.93;4.72;;;;;;;12.71;52.86;102013.09;4856019;28;123505;-69
2021/10/17 00:17:41;;;;;;;11.00;4.82;;;;;;;12.70;53.09;102003.41;4855532;29;124013;-69
2021/10/17 00:20:10;;;;;;;8.07;4.95;;;;;;;12.69;53.04;102006.97;4856419;29;109801;-68
2021/10/17 00:22:39;;;;;;;11.02;4.70;;;;;;;12.68;53.13;102002.56;4857540;29;108783;-69
2021/10/17 00:25:08;;;;;;;12.82;4.93;;;;;;;12.65;53.20;102012.38;4856394;29;122858;-69
2021/10/17 00:27:35;;;;;;;11.70;4.53;;;;;;;12.65;53.21;102023.03;4856775;29;124034;-69
2021/10/17 00:30:06;;;;;;;12.02;4.28;;;;;;;12.65;53.28;102017.69;4853296;28;108142;-68
2021/10/17 00:32:33;;;;;;;10.18;4.75;;;;;;;12.65;53.36;102012.38;4839150;29;108179;-68
2021/10/17 00:35:02;;;;;;;9.65;4.93;;;;;;;12.66;53.45;102014.13;4856750;29;124290;-69
2021/10/17 00:37:29;;;;;;;9.93;4.70;;;;;;;12.66;53.34;102014.13;4854590;29;124466;-68
2021/10/17 00:39:57;;;;;;;11.75;5.30;;;;;;;12.66;53.51;102008.81;4855952;28;108139;-69
2021/10/17 00:42:24;;;;;;;10.77;5.03;;;;;;;12.69;53.32;102018.47;4852737;29;107539;-69
2021/10/17 00:45:00;;;;;;;12.27;5.00;;;;;;;12.70;53.45;102016.69;4854066;29;122802;-68
2021/10/17 00:47:27;;;;;;;8.90;4.95;;;;;;;12.68;53.19;102000.81;4839596;29;123384;-68
2021/10/17 00:49:54;;;;;;;10.18;4.90;;;;;;;12.65;53.37;102007.06;4855046;28;109582;-69
2021/10/17 00:52:21;;;;;;;12.77;5.38;;;;;;;12.65;53.17;102007.06;4854656;29;109502;-69
2021/10/17 00:54:49;;;;;;;9.80;4.85;;;;;;;12.64;53.36;102005.34;4855103;28;124087;-69
2021/10/17 00:57:16;;;;;;;10.10;5.10;;;;;;;12.64;53.49;102000.03;4849160;29;123253;-69
2021/10/17 00:59:45;;;;;;;11.73;5.05;;;;;;;12.62;53.29;102001.88;4855813;28;108992;-69
2021/10/17 01:02:12;;;;;;;10.02;4.85;;;;;;;12.63;53.47;102002.75;4856282;29;109503;-68
2021/10/17 01:04:41;;;;;;;10.85;4.90;;;;;;;12.63;53.43;102000.94;4857845;29;123186;-69
2021/10/17 01:07:09;;;;;;;9.23;5.20;;;;;;;12.64;53.70;101994.72;4858571;29;124866;-69
2021/10/17 01:09:37;;;;;;;11.50;4.95;;;;;;;12.64;53.64;101992.06;4859994;29;109383;-68
2021/10/17 01:12:08;;;;;;;10.98;5.03;;;;;;;12.64;53.44;101989.41;4840443;29;107821;-69
2021/10/17 01:14:35;;;;;;;10.93;5.10;;;;;;;12.63;53.33;101982.34;4842018;29;123869;-69
2021/10/17 01:17:03;;;;;;;14.40;5.38;;;;;;;12.61;53.37;101989.50;4855398;28;122936;-69
2021/10/17 01:19:31;;;;;;;12.52;5.18;;;;;;;12.59;53.34;101979.84;4844837;29;108694;-69
2021/10/17 01:22:07;;;;;;;10.05;5.25;;;;;;;12.54;53.45;101987.97;4856220;28;108004;-69
2021/10/17 01:24:34;;;;;;;10.02;4.22;;;;;;;12.51;53.35;101990.75;4872869;28;123097;-69
2021/10/17 01:27:01;;;;;;;18.02;5.63;;;;;;;12.50;53.62;101991.66;4856766;29;123178;-69
2021/10/17 01:29:28;;;;;;;12.77;4.82;;;;;;;12.49;53.61;101989.06;4859549;29;109296;-69
2021/10/17 01:31:56;;;;;;;13.52;4.97;;;;;;;12.47;53.84;101981.16;4858215;29;107869;-68
2021/10/17 01:34:25;;;;;;;9.10;4.90;;;;;;;12.45;53.52;101972.34;4840670;28;123724;-69
2021/10/17 01:36:52;;;;;;;11.57;5.28;;;;;;;12.44;53.84;101973.28;4859027;29;124156;-68
2021/10/17 01:39:22;;;;;;;12.75;5.38;;;;;;;12.43;53.76;101971.53;4855438;29;109715;-69
2021/10/17 01:41:50;;;;;;;9.77;4.95;;;;;;;12.44;54.04;101970.63;4855254;28;109178;-69
2021/10/17 01:44:31;;;;;;;15.27;5.47;;;;;;;12.43;53.97;101968.88;4857911;28;123938;-69
2021/10/17 01:47:00;;;;;;;14.80;5.28;;;;;;;12.44;54.10;101965.31;4855848;29;123336;-69
2021/10/17 01:49:33;;;;;;;9.18;5.13;;;;;;;12.43;54.02;101968.88;4855499;29;109165;-69
2021/10/17 01:52:03;;;;;;;13.00;5.75;;;;;;;12.45;54.10;101956.41;4861123;23;108250;-72
2021/10/17 01:54:30;;;;;;;12.60;5.60;;;;;;;12.45;54.18;101945.78;4853210;29;124278;-72
2021/10/17 01:56:57;;;;;;;13.00;5.75;;;;;;;12.46;54.21;101942.22;4864224;28;123507;-72
2021/10/17 01:59:31;;;;;;;13.73;5.65;;;;;;;12.45;54.25;101938.69;4847068;28;108295;-72
2021/10/17 02:02:08;;;;;;;11.00;6.20;;;;;;;12.43;54.22;101937.00;4834985;29;108615;-72
2021/10/17 02:04:35;;;;;;;10.85;5.88;;;;;;;12.42;54.35;101935.28;4837548;29;123757;-71
2021/10/17 02:07:03;;;;;;;16.13;5.88;;;;;;;12.40;54.25;101930.00;4837062;29;123519;-71
2021/10/17 02:09:31;;;;;;;10.95;5.40;;;;;;;12.40;54.31;101937.13;4838412;29;108679;-71
2021/10/17 02:11:58;;;;;;;10.52;5.25;;;;;;;12.39;54.31;101940.69;4838369;29;108676;-72
2021/10/17 02:14:26;;;;;;;12.70;5.45;;;;;;;12.37;54.35;101948.72;4837225;29;124522;-71
2021/10/17 02:16:53;;;;;;;12.90;5.97;;;;;;;12.34;54.25;101953.25;4838179;29;123074;-71
2021/10/17 02:19:20;;;;;;;16.20;6.75;;;;;;;12.30;54.31;101951.63;4838214;29;109384;-71
2021/10/17 02:21:48;;;;;;;14.68;6.75;;;;;;;12.25;54.23;101955.31;4838748;29;108296;-72
2021/10/17 02:24:16;;;;;;;11.88;6.47;;;;;;;12.21;54.41;101959.00;4837501;29;124048;-71
2021/10/17 02:26:45;;;;;;;15.13;5.85;;;;;;;12.21;54.68;101953.69;4837441;29;125701;-72
2021/10/17 02:29:16;;;;;;;17.35;6.72;;;;;;;12.21;54.31;101959.00;4837784;29;110068;-71
2021/10/17 02:32:04;;;;;;;13.27;6.07;;;;;;;12.20;54.33;101949.28;4838598;29;110456;-71
2021/10/17 02:34:32;;;;;;;17.00;6.28;;;;;;;12.20;54.61;101946.63;4837002;29;123567;-71
2021/10/17 02:37:00;;;;;;;13.02;5.95;;;;;;;12.20;54.50;101951.94;4835376;29;123914;-71
2021/10/17 02:39:28;;;;;;;12.73;6.03;;;;;;;12.20;54.51;101951.94;4821484;29;107788;-71
2021/10/17 02:41:55;;;;;;;9.75;5.93;;;;;;;12.19;54.51;101952.88;4851516;29;107964;-71
2021/10/17 02:44:28;;;;;;;11.32;6.15;;;;;;;12.19;54.25;101954.69;4836626;29;123462;-70
2021/10/17 02:46:55;;;;;;;11.90;5.65;;;;;;;12.20;54.41;101946.63;4837433;29;123500;-71
2021/10/17 02:49:22;;;;;;;12.18;5.78;;;;;;;12.22;54.67;101944.81;4835878;29;108241;-71
2021/10/17 02:51:49;;;;;;;11.55;5.60;;;;;;;12.23;54.91;101938.56;4835317;29;108304;-71
2021/10/17 02:54:17;;;;;;;14.77;5.88;;;;;;;12.23;54.63;101941.22;4838494;29;124026;-71
2021/10/17 02:56:48;;;;;;;12.30;6.15;;;;;;;12.25;54.75;101939.38;4837645;29;124023;-74
2021/10/17 02:59:18;;;;;;;13.65;6.07;;;;;;;12.25;54.60;101944.69;4838032;29;111391;-71
2021/10/17 03:01:45;;;;;;;13.10;6.85;;;;;;;12.25;54.48;101939.38;4836891;29;109081;-71
2021/10/17 03:04:13;;;;;;;11.55;5.88;;;;;;;12.24;54.56;101932.34;4838601;29;124022;-71
2021/10/17 03:06:40;;;;;;;14.13;6.07;;;;;;;12.24;54.67;101937.66;4837570;29;123191;-71
2021/10/17 03:09:08;;;;;;;10.00;6.05;;;;;;;12.23;54.58;101946.53;4850571;29;108266;-71
2021/10/17 03:11:35;;;;;;;15.07;6.13;;;;;;;12.24;54.73;101937.66;4835783;29;108509;-71
2021/10/17 03:14:05;;;;;;;14.55;6.32;;;;;;;12.25;54.75;101944.69;4835877;29;124226;-71
2021/10/17 03:16:33;;;;;;;11.35;5.75;;;;;;;12.25;54.53;101944.69;4836063;29;123666;-71
2021/10/17 03:19:00;;;;;;;9.45;5.50;;;;;;;12.23;54.40;101943.88;4837102;29;109553;-71
2021/10/17 03:21:28;;;;;;;13.57;6.32;;;;;;;12.20;54.75;101930.69;4850887;29;109372;-71
2021/10/17 03:23:55;;;;;;;11.65;6.13;;;;;;;12.16;54.76;101929.06;4836800;29;123456;-70
2021/10/17 03:26:22;;;;;;;14.32;6.43;;;;;;;12.13;54.70;101923.88;4853648;29;124008;-71
2021/10/17 03:28:50;;;;;;;12.27;6.00;;;;;;;12.12;54.70;101932.75;4839158;29;108527;-71
2021/10/17 03:31:17;;;;;;;10.07;6.10;;;;;;;12.12;55.01;101931.91;4837405;29;108160;-71
2021/10/17 03:33:46;;;;;;;12.73;6.45;;;;;;;12.12;54.94;101938.06;4836083;29;124465;-71
2021/10/17 03:36:17;;;;;;;14.95;6.28;;;;;;;12.13;55.06;101929.19;4853177;29;124170;-71
2021/10/17 03:38:44;;;;;;;13.52;6.20;;;;;;;12.14;54.95;101930.91;4838917;29;108598;-74
2021/10/17 03:41:13;;;;;;;15.27;6.25;;;;;;;12.13;55.03;101933.63;4838523;29;108879;-71
2021/10/17 03:43:45;;;;;;;10.57;5.60;;;;;;;12.12;54.95;101938.06;4838114;29;123257;-71
2021/10/17 03:46:15;;;;;;;13.00;6.13;;;;;;;12.12;55.14;101943.38;4836758;29;124480;-71
2021/10/17 03:48:45;;;;;;;12.93;6.35;;;;;;;12.13;54.92;101938.94;4837768;29;108783;-71
2021/10/17 03:51:16;;;;;;;11.00;5.85;;;;;;;12.12;55.03;101932.75;4834484;29;108672;-71
2021/10/17 03:53:43;;;;;;;11.55;6.82;;;;;;;12.10;54.93;101933.75;4836251;29;123490;-71
2021/10/17 03:56:11;;;;;;;13.18;5.90;;;;;;;12.08;54.96;101945.28;4841670;29;123551;-71
2021/10/17 03:58:38;;;;;;;14.55;6.22;;;;;;;12.08;55.23;101949.72;4848567;29;108991;-71
2021/10/17 04:01:05;;;;;;;13.43;6.13;;;;;;;12.08;55.27;101944.41;4837441;29;107984;-71
2021/10/17 04:03:32;;;;;;;15.25;6.32;;;;;;;12.08;55.04;101941.75;4836437;29;124284;-71
2021/10/17 04:06:00;;;;;;;10.60;5.88;;;;;;;12.06;55.08;101932.97;4852339;29;122928;-71
2021/10/17 04:08:27;;;;;;;9.55;5.95;;;;;;;12.05;55.24;101947.16;4832555;29;109897;-71
2021/10/17 04:10:54;;;;;;;11.15;5.63;;;;;;;12.06;55.28;101949.75;4835598;28;109307;-71
2021/10/17 04:13:21;;;;;;;11.75;6.22;;;;;;;12.04;55.37;101953.41;4835580;29;123404;-71
2021/10/17 04:15:48;;;;;;;10.48;6.18;;;;;;;12.03;55.30;101949.84;4849707;29;123020;-71
2021/10/17 04:18:16;;;;;;;15.07;5.65;;;;;;;12.05;55.15;101947.16;4836884;29;109198;-71
2021/10/17 04:20:44;;;;;;;11.60;5.50;;;;;;;12.06;55.27;101959.53;4834395;29;108616;-71
2021/10/17 04:23:11;;;;;;;10.48;5.63;;;;;;;12.04;55.16;101972.84;4849926;29;123202;-71
2021/10/17 04:25:38;;;;;;;16.13;5.68;;;;;;;12.01;55.09;101956.16;4835537;29;123546;-73
2021/10/17 04:28:12;;;;;;;9.60;5.45;;;;;;;11.99;55.26;101947.38;4833471;29;108966;-71
2021/10/17 04:30:39;;;;;;;12.15;5.38;;;;;;;11.98;55.35;101953.59;4837016;29;107480;-73
2021/10/17 04:33:06;;;;;;;13.75;5.78;;;;;;;11.98;55.17;101956.25;4835909;29;124083;-73
2021/10/17 04:35:38;;;;;;;14.05;5.45;;;;;;;11.95;55.51;101951.91;4837135;29;123903;-70
2021/10/17 04:38:06;;;;;;;11.52;5.95;;;;;;;11.94;55.19;101941.34;4839197;29;109423;-73
2021/10/17 04:40:36;;;;;;;16.48;6.60;;;;;;;11.87;54.99;101943.31;4840364;29;108389;-73
2021/10/17 04:43:04;;;;;;;12.57;5.93;;;;;;;11.80;55.54;101947.94;4837611;29;124278;-73
2021/10/17 04:45:31;;;;;;;12.65;5.95;;;;;;;11.78;55.50;101947.13;4840833;29;123842;-72
2021/10/17 04:47:58;;;;;;;11.27;6.00;;;;;;;11.76;55.40;101943.66;4839781;29;108048;-73
2021/10/17 04:50:25;;;;;;;10.80;5.88;;;;;;;11.75;55.36;101949.84;4839571;29;107837;-73
2021/10/17 04:52:56;;;;;;;12.45;5.68;;;;;;;11.74;55.45;101948.13;4836291;29;124749;-71
2021/10/17 04:55:24;;;;;;;12.35;6.22;;;;;;;11.74;55.63;101948.13;4854089;29;123633;-71
2021/10/17 04:57:51;;;;;;;12.10;5.88;;;;;;;11.76;55.30;101948.97;4839783;29;109515;-71
2021/10/17 05:00:21;;;;;;;12.80;6.38;;;;;;;11.77;55.40;101952.47;4854290;29;109242;-71
2021/10/17 05:02:59;;;;;;;10.15;6.10;;;;;;;11.74;55.55;101942.84;4839472;29;123904;-71
2021/10/17 05:05:27;;;;;;;14.65;6.18;;;;;;;11.71;55.14;101948.22;4837013;29;123001;-73
2021/10/17 05:07:57;;;;;;;11.43;6.07;;;;;;;11.68;55.52;101940.38;4839474;29;109017;-71
2021/10/17 05:10:25;;;;;;;11.98;6.40;;;;;;;11.66;55.39;101944.88;4839102;29;108293;-72
2021/10/17 05:12:53;;;;;;;12.43;6.63;;;;;;;11.62;55.43;101938.78;4839326;29;123170;-71
2021/10/17 05:15:20;;;;;;;11.45;6.00;;;;;;;11.59;55.59;101943.31;4837988;29;122737;-71
2021/10/17 05:17:47;;;;;;;10.80;5.80;;;;;;;11.56;55.52;101943.41;4835772;29;108060;-72
2021/10/17 05:20:15;;;;;;;9.57;5.55;;;;;;;11.52;55.57;101947.09;4838954;29;108649;-71
2021/10/17 05:22:44;;;;;;;12.50;5.70;;;;;;;11.52;55.51;101939.13;4836780;29;123631;-71
2021/10/17 05:25:14;;;;;;;15.13;6.32;;;;;;;11.48;55.85;101941.88;4840475;29;124564;-72
2021/10/17 05:27:43;;;;;;;13.50;6.30;;;;;;;11.47;55.62;101950.75;4839666;28;108746;-71
2021/10/17 05:30:10;;;;;;;10.18;5.65;;;;;;;11.45;55.86;101947.28;4836992;29;108761;-71
2021/10/17 05:32:38;;;;;;;12.60;6.40;;;;;;;11.42;55.51;101942.06;4838307;29;123858;-71
2021/10/17 05:35:05;;;;;;;13.40;6.32;;;;;;;11.37;56.00;101943.97;4838993;29;123224;-72
2021/10/17 05:37:32;;;;;;;11.38;6.00;;;;;;;11.34;55.91;101949.41;4836390;29;113772;-71
2021/10/17 05:40:00;;;;;;;11.45;5.47;;;;;;;11.31;55.73;101944.16;4836090;29;114318;-71
2021/10/17 05:42:28;;;;;;;14.85;6.85;;;;;;;11.26;55.57;101946.09;4835486;29;123157;-71
2021/10/17 05:45:16;;;;;;;13.95;6.20;;;;;;;11.22;55.84;101944.44;4838430;29;122513;-75
2021/10/17 05:47:43;;;;;;;11.82;6.55;;;;;;;11.19;56.01;101944.53;4817633;29;114634;-72
2021/10/17 05:50:11;;;;;;;12.15;6.15;;;;;;;11.16;56.10;101955.25;4835883;29;114310;-71
2021/10/17 05:52:38;;;;;;;12.40;6.20;;;;;;;11.13;55.96;101950.03;4832869;29;123080;-72
2021/10/17 05:55:06;;;;;;;10.57;6.18;;;;;;;11.13;56.07;101955.31;4835431;29;123405;-72
2021/10/17 05:57:36;;;;;;;11.48;6.70;;;;;;;11.11;56.16;101963.31;4849524;29;113867;-72
2021/10/17 06:00:07;;;;;;;10.30;6.53;;;;;;;11.09;56.05;101966.03;4833899;29;113643;-71
2021/10/17 06:02:41;;;;;;;15.13;6.95;;;;;;;11.09;56.07;101966.03;4832517;29;124612;-72
2021/10/17 06:05:11;;;;;;;13.50;6.30;;;;;;;11.09;56.39;101974.00;4835585;29;123343;-71
2021/10/17 06:07:38;;;;;;;14.27;7.07;;;;;;;11.12;56.33;101969.50;4834366;29;113841;-72
2021/10/17 06:10:08;;;;;;;13.70;6.18;;;;;;;11.13;56.10;101971.22;4835427;29;113559;-72
2021/10/17 06:12:40;;;;;;;14.30;6.38;;;;;;;11.13;56.21;101976.53;4835213;29;123325;-72
2021/10/17 06:15:08;;;;;;;12.55;6.20;;;;;;;11.13;56.03;101979.19;4835271;29;123806;-72
2021/10/17 06:17:35;;;;;;;12.52;6.63;;;;;;;11.12;56.06;101980.13;4835166;29;114134;-72
2021/10/17 06:20:06;;;;;;;12.32;6.85;;;;;;;11.12;56.11;101978.31;4821002;29;113902;-72
2021/10/17 06:22:39;;;;;;;12.02;6.60;;;;;;;11.13;56.20;101973.88;4835056;29;123337;-72
2021/10/17 06:25:06;;;;;;;14.82;6.72;;;;;;;11.12;56.14;101974.81;4833433;29;124921;-72
2021/10/17 06:27:34;;;;;;;11.07;6.40;;;;;;;11.08;56.23;101974.91;4818821;29;113609;-71
2021/10/17 06:30:01;;;;;;;14.20;6.68;;;;;;;11.06;56.16;101987.31;4834754;29;113910;-71
2021/10/17 06:32:29;;;;;;;11.18;6.45;;;;;;;11.05;56.24;101985.56;4834877;29;123638;-72
2021/10/17 06:34:56;;;;;;;12.10;6.82;;;;;;;11.04;56.42;101977.69;4836334;29;123132;-72
2021/10/17 06:37:23;;;;;;;11.35;6.70;;;;;;;11.05;56.50;101982.91;4819634;29;115255;-72
2021/10/17 06:39:51;;;;;;;13.48;6.22;;;;;;;11.05;56.68;101996.19;4851399;29;114403;-72
2021/10/17 06:42:20;;;;;;;15.45;7.00;;;;;;;11.06;56.56;101997.94;4835294;29;124053;-71
2021/10/17 06:45:17;;;;;;;11.63;5.97;;;;;;;11.10;56.96;101999.56;4844088;29;125612;-74
2021/10/17 06:47:44;;;;;;;11.00;5.60;;;;;;;11.14;56.69;102003.00;4831263;29;113734;-71
2021/10/17 06:50:13;;;;;;;14.25;6.40;;;;;;;11.18;56.61;101995.84;4833940;29;113245;-71
2021/10/17 06:52:43;;;;;;;14.80;6.80;;;;;;;11.20;56.33;101983.41;4824700;29;124316;-70
2021/10/17 06:55:10;;;;;;;11.73;6.28;;;;;;;11.20;56.51;101994.00;4836601;29;123046;-71
2021/10/17 06:57:38;;;;;;;12.35;6.32;;;;;;;11.21;56.79;101998.41;4847082;28;114165;-73
2021/10/17 07:00:06;;;;;;;17.45;6.25;;;;;;;11.26;56.76;102005.31;4835138;29;112682;-72
2021/10/17 07:02:36;;;;;;;15.32;6.50;;;;;;;11.30;56.86;102000.78;4832338;29;123792;-72
2021/10/17 07:05:07;;;;;;;13.10;5.90;;;;;;;11.33;56.57;102000.69;4843131;29;123507;-71
2021/10/17 07:07:34;;;;;;;12.27;6.82;;;;;;;11.36;56.80;102000.63;4851938;28;113725;-71
2021/10/17 07:10:03;;;;;;;15.05;6.38;;;;;;;11.41;56.92;102009.28;4835958;29;113572;-72
2021/10/17 07:12:48;;;;;;;14.27;5.95;;;;;;;11.48;56.89;102004.66;4836013;29;124581;-72
2021/10/17 07:15:17;;;;;;;15.13;6.35;;;;;;;11.54;57.02;102006.28;4826787;29;123771;-72
2021/10/17 07:17:54;;;;;;;14.25;6.20;;;;;;;11.60;56.98;102008.72;4830734;29;113944;-71
2021/10/17 07:20:32;;;;;;;15.43;6.47;;;;;;;11.67;56.92;102004.97;4829955;29;113578;-72
2021/10/17 07:22:59;;;;;;;12.30;6.07;;;;;;;11.75;57.05;101997.63;4835369;29;123785;-72
2021/10/17 07:25:31;;;;;;;15.45;6.53;;;;;;;11.80;56.69;101990.41;4834215;29;123471;-71
2021/10/17 07:27:58;;;;;;;16.27;6.57;;;;;;;11.86;56.71;102000.81;4829304;29;115873;-71
2021/10/17 07:30:26;;;;;;;14.40;6.65;;;;;;;11.89;56.69;101994.56;4835712;29;114064;-71
2021/10/17 07:32:53;;;;;;;15.27;6.15;;;;;;;11.94;56.64;101997.09;4834678;29;124328;-72
2021/10/17 07:35:20;;;;;;;16.10;6.75;;;;;;;11.97;57.03;101986.38;4851333;29;123033;-71
2021/10/17 07:37:48;;;;;;;11.57;6.05;;;;;;;12.00;56.50;101983.63;4845876;29;113266;-73
2021/10/17 07:40:15;;;;;;;10.07;6.07;;;;;;;12.04;56.55;101972.00;4830493;29;113242;-73
2021/10/17 07:42:45;;;;;;;12.48;5.97;;;;;;;12.07;56.77;101969.22;4834457;29;123674;-73
2021/10/17 07:45:17;;;;;;;12.18;6.30;;;;;;;12.11;56.86;101978.84;4828028;29;123938;-73
2021/10/17 07:47:54;;;;;;;12.70;6.53;;;;;;;12.15;56.75;101979.56;4828849;29;114270;-73
2021/10/17 07:50:22;;;;;;;10.82;6.15;;;;;;;12.20;56.71;101999.75;4832980;28;114126;-74
2021/10/17 07:52:50;;;;;;;13.75;7.25;;;;;;;12.27;56.98;102005.75;4832743;29;123650;-73
2021/10/17 07:55:35;;;;;;;14.93;6.65;;;;;;;12.35;56.89;102024.09;4848896;29;123639;-73
2021/10/17 07:58:05;;;;;;;15.13;7.22;;;;;;;12.45;56.66;102020.19;4824186;29;113540;-74
2021/10/17 08:00:37;;;;;;;15.90;6.40;;;;;;;12.56;56.57;102039.28;4834598;29;113469;-74
2021/10/17 08:03:23;;;;;;;14.32;6.82;;;;;;;12.64;56.51;102031.94;4833823;29;124743;-74
2021/10/17 08:06:06;;;;;;;16.23;6.65;;;;;;;12.73;56.65;102029.88;4841747;29;123227;-75
2021/10/17 08:08:34;;;;;;;13.60;6.60;;;;;;;12.80;56.47;102039.38;4835749;29;114217;-72
2021/10/17 08:11:01;;;;;;;15.48;6.50;;;;;;;12.89;56.66;102031.06;4825906;29;114260;-73
2021/10/17 08:13:29;;;;;;;13.75;6.93;;;;;;;12.96;56.32;102032.59;4850335;28;124118;-73
2021/10/17 08:16:00;;;;;;;11.23;6.13;;;;;;;13.05;56.54;102039.34;4844211;29;122531;-73
2021/10/17 08:18:33;;;;;;;13.98;6.80;;;;;;;13.16;56.46;102033.66;4832386;29;115591;-73
2021/10/17 08:21:03;;;;;;;11.93;6.53;;;;;;;13.25;56.16;102038.63;4850617;29;114769;-73
2021/10/17 08:23:38;;;;;;;11.95;6.85;;;;;;;13.34;56.52;102038.31;4850218;28;124421;-73
2021/10/17 08:26:06;;;;;;;11.90;6.68;;;;;;;13.43;56.29;102032.66;4850995;28;123618;-73
2021/10/17 08:28:34;;;;;;;13.05;6.43;;;;;;;13.53;56.30;102024.31;4835107;29;114388;-73
2021/10/17 08:31:10;;;;;;;16.08;6.90;;;;;;;13.64;56.18;102024.78;4835748;29;113592;-73
2021/10/17 08:33:37;;;;;;;16.08;6.82;;;;;;;13.75;56.10;102027.00;4835291;29;123001;-73
2021/10/17 08:36:04;;;;;;;14.50;7.10;;;;;;;13.85;55.94;102023.06;4836113;29;123285;-73
2021/10/17 08:38:53;;;;;;;12.68;6.45;;;;;;;13.95;55.80;102023.56;4836021;29;114051;-73
2021/10/17 08:41:25;;;;;;;11.98;6.72;;;;;;;14.04;55.73;102017.84;4834810;29;113574;-73
2021/10/17 08:44:14;;;;;;;9.65;6.53;;;;;;;14.13;55.74;102028.13;4834307;29;123958;-74
2021/10/17 08:47:00;;;;;;;11.68;6.70;;;;;;;14.23;55.52;102033.09;4821856;29;122880;-74
2021/10/17 08:49:33;;;;;;;11.30;6.82;;;;;;;14.30;55.57;102029.25;4850761;28;113785;-74
2021/10/17 08:52:00;;;;;;;17.70;7.00;;;;;;;14.39;55.68;102031.50;4827588;29;114246;-74
2021/10/17 08:54:27;;;;;;;17.73;6.72;;;;;;;14.47;55.21;102029.41;4834650;29;123645;-74
2021/10/17 08:57:02;;;;;;;12.33;6.70;;;;;;;14.54;55.14;102022.88;4822792;29;123182;-74
2021/10/17 08:59:31;;;;;;;11.00;6.03;;;;;;;14.58;54.97;102024.50;4835037;29;114188;-74
2021/10/17 09:02:10;;;;;;;11.55;5.88;;;;;;;14.64;54.74;102019.84;4834778;29;112814;-74
2021/10/17 09:04:38;;;;;;;13.45;6.65;;;;;;;14.70;54.70;102022.25;4850613;28;122929;-74
2021/10/17 09:07:18;;;;;;;12.30;5.82;;;;;;;14.76;54.62;102022.81;4833841;29;123433;-74
2021/10/17 09:10:16;;;;;;;9.43;5.32;;;;;;;14.85;54.34;102029.56;4849993;28;114343;-74
2021/10/17 09:12:46;;;;;;;11.95;5.35;;;;;;;14.88;54.32;102032.13;4828519;29;114294;-74
2021/10/17 09:15:30;;;;;;;9.55;5.50;;;;;;;14.94;54.26;102026.50;4829452;29;123924;-74
2021/10/17 09:18:07;;;;;;;11.47;5.70;;;;;;;15.02;54.04;102023.50;4816667;29;123800;-74
2021/10/17 09:20:37;;;;;;;8.80;5.03;;;;;;;15.07;53.88;102020.59;4828022;29;114454;-74
2021/10/17 09:23:05;;;;;;;15.10;5.53;;;;;;;15.13;53.64;102015.00;4837436;29;114940;-74
2021/10/17 09:25:36;;;;;;;10.20;5.30;;;;;;;15.17;53.66;102021.94;4825022;29;124389;-74
2021/10/17 09:28:19;;;;;;;9.85;5.47;;;;;;;15.24;53.52;102023.38;4827262;29;124157;-74
2021/10/17 09:30:57;;;;;;;12.65;5.32;;;;;;;15.29;53.39;102020.50;4837189;29;114491;-74
2021/10/17 09:34:00;;;;;;;9.30;5.57;;;;;;;15.36;53.22;102012.13;4837707;29;113928;-74
2021/10/17 09:36:32;;;;;;;11.07;5.18;;;;;;;15.45;53.33;102020.66;4852417;28;123621;-74
2021/10/17 09:39:15;;;;;;;11.85;4.63;;;;;;;15.52;53.10;102017.63;4826610;29;124760;-74
2021/10/17 09:42:20;;;;;;;12.68;5.30;;;;;;;15.61;53.04;102021.66;4828406;29;114340;-74
2021/10/17 09:44:57;;;;;;;9.30;5.15;;;;;;;15.70;52.83;102021.22;4836957;29;113684;-74
2021/10/17 09:47:39;;;;;;;9.48;4.60;;;;;;;15.75;52.75;102021.91;4838438;29;124867;-74
2021/10/17 09:50:14;;;;;;;9.32;4.90;;;;;;;15.83;52.54;102020.69;4823857;29;124588;-74
2021/10/17 09:52:57;;;;;;;;;;;;;;;15.88;53.18;102023.97;4844606;29;112896;-75
2021/10/17 09:55:25;;;;;;;9.90;4.97;;;;;;;16.00;52.72;102012.69;4829331;29;114798;-74
2021/10/17 09:57:52;;;;;;;9.68;4.88;;;;;;;16.06;52.49;102012.41;4834040;29;124954;-75
2021/10/17 10:00:20;;;;;;;9.05;4.72;;;;;;;16.12;52.25;102016.56;4838891;29;124317;-74
2021/10/17 10:02:49;;;;;;;10.15;5.32;;;;;;;16.17;52.13;102013.69;4830146;29;115046;-74
2021/10/17 10:05:21;;;;;;;9.00;4.78;;;;;;;16.20;51.93;102014.41;4837468;29;115275;-74
2021/10/17 10:07:50;;;;;;;13.90;5.35;;;;;;;16.24;51.62;102015.97;4829791;29;123905;-75
2021/10/17 10:10:18;;;;;;;9.38;5.10;;;;;;;16.28;51.41;102012.19;4835842;29;124297;-74
2021/10/17 10:12:46;;;;;;;9.20;4.90;;;;;;;16.31;51.28;102016.50;4855513;28;113115;-74
2021/10/17 10:15:14;;;;;;;9.50;4.93;;;;;;;16.36;51.19;102019.81;4840265;29;113206;-74
2021/10/17 10:17:43;;;;;;;10.38;4.82;;;;;;;16.41;51.22;102017.78;4840156;29;124255;-74
2021/10/17 10:20:11;;;;;;;11.73;5.25;;;;;;;16.46;50.96;102026.47;4837620;29;124325;-74
2021/10/17 10:22:43;;;;;;;10.73;4.97;;;;;;;16.51;50.98;102029.75;4835738;29;113406;-74
2021/10/17 10:25:14;;;;;;;9.02;4.75;;;;;;;16.57;50.80;102033.06;4840044;29;113959;-75
2021/10/17 10:27:44;;;;;;;7.32;4.63;;;;;;;16.63;50.88;102027.38;4833026;29;122922;-75
2021/10/17 10:30:32;;;;;;;6.55;4.35;;;;;;;16.70;50.68;102023.44;4819052;29;123237;-74
2021/10/17 10:33:20;;;;;;;8.38;4.60;;;;;;;16.78;50.65;102029.25;4835147;29;113120;-74
2021/10/17 10:36:17;;;;;;;10.45;4.80;;;;;;;16.84;50.72;102030.78;4849479;29;114007;-74
2021/10/17 10:38:51;;;;;;;10.20;4.72;;;;;;;16.88;50.22;102027.88;4829901;29;121721;-75
2021/10/17 10:41:21;;;;;;;10.75;4.93;;;;;;;16.91;50.06;102022.38;4833915;29;124481;-74
2021/10/17 10:43:49;;;;;;;10.07;4.53;;;;;;;16.92;49.90;102024.09;4833379;29;113351;-75
2021/10/17 10:46:28;;;;;;;9.48;4.70;;;;;;;16.92;50.08;102023.22;4816828;29;113312;-75
2021/10/17 10:48:56;;;;;;;10.35;4.57;;;;;;;16.96;49.69;102021.25;4835980;29;123035;-74
2021/10/17 10:51:40;;;;;;;8.77;4.45;;;;;;;16.97;49.67;102026.53;4833490;29;123973;-74
2021/10/17 10:54:27;;;;;;;10.38;4.63;;;;;;;16.99;49.79;102018.41;4834632;29;115070;-74
2021/10/17 10:56:56;;;;;;;7.97;4.63;;;;;;;17.03;49.48;102011.97;4836378;29;115227;-74
2021/10/17 10:59:28;;;;;;;8.88;4.70;;;;;;;17.05;49.29;102013.59;4835301;29;124510;-75
2021/10/17 11:01:57;;;;;;;7.80;4.63;;;;;;;17.06;49.47;102014.44;4854442;29;124887;-74
2021/10/17 11:04:37;;;;;;;9.88;4.72;;;;;;;17.08;49.39;102012.56;4850860;29;113439;-74
2021/10/17 11:07:20;;;;;;;8.32;4.85;;;;;;;17.13;49.48;102015.84;4832120;29;113888;-74
2021/10/17 11:09:51;;;;;;;7.53;4.28;;;;;;;17.17;49.20;102012.06;4820209;29;123375;-74
2021/10/17 11:12:39;;;;;;;9.35;4.50;;;;;;;17.22;49.34;102004.66;4831683;29;123450;-75
2021/10/17 11:15:07;;;;;;;8.60;4.82;;;;;;;17.29;49.27;102006.06;4833535;29;114160;-74
2021/10/17 11:17:35;;;;;;;6.18;4.20;;;;;;;17.36;49.29;102006.56;4836639;29;113104;-75
2021/10/17 11:20:05;;;;;;;8.10;4.30;;;;;;;17.43;49.16;102004.44;4835256;29;125310;-74
2021/10/17 11:22:35;;;;;;;6.93;4.10;;;;;;;17.49;49.05;101998.72;4833442;29;124698;-74
2021/10/17 11:25:04;;;;;;;9.23;4.72;;;;;;;17.56;49.14;101997.44;4833561;29;113734;-74
2021/10/17 11:27:34;;;;;;;7.88;4.25;;;;;;;17.61;48.72;101995.38;4836077;29;113646;-74